sensor_id;sensor_type;location;lat;lon;timestamp;pressure;altitude;pressure_sealevel;temperature;humidity
61757;BME280;57225;61.460;24.060;2022-09-09T00:00:31;101250.78;;;3.27;100.00
61757;BME280;57225;61.460;24.060;2022-09-09T00:03:24;101247.19;;;3.27;100.00
61757;BME280;57225;61.460;24.060;2022-09-09T00:06:17;101246.38;;;3.26;100.00
61757;BME280;57225;61.460;24.060;2022-09-09T00:09:13;101255.78;;;3.25;100.00
61757;BME280;57225;61.460;24.060;2022-09-09T00:12:09;101245.72;;;3.29;100.00
61757;BME280;57225;61.460;24.060;2022-09-09T00:15:18;101255.63;;;3.21;100.00
61757;BME280;57225;61.460;24.060;2022-09-09T00:21:15;101255.00;;;3.16;100.00
61757;BME280;57225;61.460;24.060;2022-09-09T00:24:00;101253.84;;;3.17;100.00
61757;BME280;57225;61.460;24.060;2022-09-09T00:26:48;101251.56;;;3.10;100.00
61757;BME280;57225;61.460;24.060;2022-09-09T00:29:43;101255.31;;;3.14;100.00
61757;BME280;57225;61.460;24.060;2022-09-09T00:32:30;101252.56;;;3.14;100.00
61757;BME280;57225;61.460;24.060;2022-09-09T00:35:34;101249.63;;;3.11;100.00
61757;BME280;57225;61.460;24.060;2022-09-09T00:38:43;101246.72;;;3.07;100.00
61757;BME280;57225;61.460;24.060;2022-09-09T00:41:51;101251.75;;;3.14;100.00
61757;BME280;57225;61.460;24.060;2022-09-09T00:44:50;101254.31;;;3.10;100.00
61757;BME280;57225;61.460;24.060;2022-09-09T00:48:00;101239.75;;;3.10;100.00
61757;BME280;57225;61.460;24.060;2022-09-09T00:50:55;101243.16;;;3.07;100.00
61757;BME280;57225;61.460;24.060;2022-09-09T00:54:07;101243.81;;;3.04;100.00
61757;BME280;57225;61.460;24.060;2022-09-09T00:59:48;101242.84;;;3.00;100.00
61757;BME280;57225;61.460;24.060;2022-09-09T01:12:16;101250.44;;;2.86;100.00
61757;BME280;57225;61.460;24.060;2022-09-09T01:15:08;101249.00;;;2.79;100.00
61757;BME280;57225;61.460;24.060;2022-09-09T01:18:03;101236.34;;;2.78;100.00
61757;BME280;57225;61.460;24.060;2022-09-09T01:24:04;101249.66;;;2.76;100.00
61757;BME280;57225;61.460;24.060;2022-09-09T01:26:56;101243.47;;;2.79;100.00
61757;BME280;57225;61.460;24.060;2022-09-09T01:29:42;101243.16;;;2.81;100.00
61757;BME280;57225;61.460;24.060;2022-09-09T01:32:56;101240.72;;;2.79;100.00
61757;BME280;57225;61.460;24.060;2022-09-09T01:36:08;101241.22;;;2.73;100.00
61757;BME280;57225;61.460;24.060;2022-09-09T01:38:52;101238.31;;;2.69;100.00
61757;BME280;57225;61.460;24.060;2022-09-09T01:41:37;101244.94;;;2.68;100.00
61757;BME280;57225;61.460;24.060;2022-09-09T01:44:22;101245.25;;;2.67;100.00
61757;BME280;57225;61.460;24.060;2022-09-09T01:47:07;101243.47;;;2.62;100.00
61757;BME280;57225;61.460;24.060;2022-09-09T01:49:51;101238.94;;;2.58;100.00
61757;BME280;57225;61.460;24.060;2022-09-09T01:52:36;101244.75;;;2.56;100.00
61757;BME280;57225;61.460;24.060;2022-09-09T01:55:30;101237.13;;;2.53;100.00
61757;BME280;57225;61.460;24.060;2022-09-09T01:58:51;101243.47;;;2.62;100.00
61757;BME280;57225;61.460;24.060;2022-09-09T02:04:40;101239.09;;;2.61;100.00
61757;BME280;57225;61.460;24.060;2022-09-09T02:07:38;101240.88;;;2.57;100.00
61757;BME280;57225;61.460;24.060;2022-09-09T02:10:36;101233.44;;;2.58;100.00
61757;BME280;57225;61.460;24.060;2022-09-09T02:13:21;101225.47;;;2.48;100.00
61757;BME280;57225;61.460;24.060;2022-09-09T02:16:38;101234.38;;;2.53;100.00
61757;BME280;57225;61.460;24.060;2022-09-09T02:19:31;101226.28;;;2.48;100.00
61757;BME280;57225;61.460;24.060;2022-09-09T02:22:19;101226.47;;;2.43;100.00
61757;BME280;57225;61.460;24.060;2022-09-09T02:25:08;101230.03;;;2.43;100.00
61757;BME280;57225;61.460;24.060;2022-09-09T02:27:54;101229.38;;;2.38;100.00
61757;BME280;57225;61.460;24.060;2022-09-09T02:30:40;101239.41;;;2.42;100.00
61757;BME280;57225;61.460;24.060;2022-09-09T02:33:28;101241.50;;;2.37;100.00
61757;BME280;57225;61.460;24.060;2022-09-09T02:36:15;101241.50;;;2.37;100.00
61757;BME280;57225;61.460;24.060;2022-09-09T02:39:00;101243.91;;;2.30;100.00
61757;BME280;57225;61.460;24.060;2022-09-09T02:41:45;101233.38;;;2.23;100.00
61757;BME280;57225;61.460;24.060;2022-09-09T02:44:29;101236.31;;;2.27;100.00
61757;BME280;57225;61.460;24.060;2022-09-09T02:47:29;101234.69;;;2.26;100.00
61757;BME280;57225;61.460;24.060;2022-09-09T02:50:29;101233.56;;;2.27;100.00
61757;BME280;57225;61.460;24.060;2022-09-09T02:53:29;101230.63;;;2.23;100.00
61757;BME280;57225;61.460;24.060;2022-09-09T02:56:20;101236.44;;;2.22;100.00
61757;BME280;57225;61.460;24.060;2022-09-09T02:59:05;101231.75;;;2.22;100.00
61757;BME280;57225;61.460;24.060;2022-09-09T03:01:49;101231.28;;;2.20;100.00
61757;BME280;57225;61.460;24.060;2022-09-09T03:04:34;101225.59;;;2.17;100.00
61757;BME280;57225;61.460;24.060;2022-09-09T03:07:19;101222.38;;;2.15;100.00
61757;BME280;57225;61.460;24.060;2022-09-09T03:10:04;101224.97;;;2.20;100.00
61757;BME280;57225;61.460;24.060;2022-09-09T03:12:49;101223.97;;;2.16;100.00
61757;BME280;57225;61.460;24.060;2022-09-09T03:15:34;101221.41;;;2.19;100.00
61757;BME280;57225;61.460;24.060;2022-09-09T03:18:18;101225.22;;;2.10;100.00
61757;BME280;57225;61.460;24.060;2022-09-09T03:21:03;101223.00;;;2.12;100.00
61757;BME280;57225;61.460;24.060;2022-09-09T03:23:48;101225.22;;;2.10;100.00
61757;BME280;57225;61.460;24.060;2022-09-09T03:26:32;101224.09;;;2.11;100.00
61757;BME280;57225;61.460;24.060;2022-09-09T03:29:17;101224.41;;;2.09;100.00
61757;BME280;57225;61.460;24.060;2022-09-09T03:32:02;101222.63;;;2.05;100.00
61757;BME280;57225;61.460;24.060;2022-09-09T03:34:46;101222.47;;;2.01;100.00
61757;BME280;57225;61.460;24.060;2022-09-09T03:37:31;101226.50;;;2.03;100.00
61757;BME280;57225;61.460;24.060;2022-09-09T03:40:17;101225.69;;;2.03;100.00
61757;BME280;57225;61.460;24.060;2022-09-09T03:43:03;101221.16;;;1.98;100.00
61757;BME280;57225;61.460;24.060;2022-09-09T03:45:48;101220.19;;;2.03;100.00
61757;BME280;57225;61.460;24.060;2022-09-09T03:48:32;101216.81;;;2.06;100.00
61757;BME280;57225;61.460;24.060;2022-09-09T03:51:16;101219.56;;;2.06;100.00
61757;BME280;57225;61.460;24.060;2022-09-09T03:54:01;101225.13;;;2.15;100.00
61757;BME280;57225;61.460;24.060;2022-09-09T03:56:45;101231.28;;;2.20;100.00
61757;BME280;57225;61.460;24.060;2022-09-09T03:59:29;101228.19;;;2.22;100.00
61757;BME280;57225;61.460;24.060;2022-09-09T04:02:14;101230.31;;;2.25;100.00
61757;BME280;57225;61.460;24.060;2022-09-09T04:04:59;101226.13;;;2.36;100.00
61757;BME280;57225;61.460;24.060;2022-09-09T04:07:44;101227.91;;;2.49;100.00
61757;BME280;57225;61.460;24.060;2022-09-09T04:10:28;101222.13;;;2.59;100.00
61757;BME280;57225;61.460;24.060;2022-09-09T04:13:15;101222.44;;;2.75;100.00
61757;BME280;57225;61.460;24.060;2022-09-09T04:16:02;101222.09;;;2.85;100.00
61757;BME280;57225;61.460;24.060;2022-09-09T04:18:47;101209.66;;;2.88;100.00
61757;BME280;57225;61.460;24.060;2022-09-09T04:21:32;101215.81;;;3.02;100.00
61757;BME280;57225;61.460;24.060;2022-09-09T04:24:17;101211.56;;;3.13;100.00
61757;BME280;57225;61.460;24.060;2022-09-09T04:27:01;101218.34;;;3.24;100.00
61757;BME280;57225;61.460;24.060;2022-09-09T04:29:45;101204.88;;;3.31;100.00
61757;BME280;57225;61.460;24.060;2022-09-09T04:32:32;101202.88;;;3.49;100.00
61757;BME280;57225;61.460;24.060;2022-09-09T04:35:16;101213.72;;;3.62;100.00
61757;BME280;57225;61.460;24.060;2022-09-09T04:38:01;101208.38;;;3.66;100.00
61757;BME280;57225;61.460;24.060;2022-09-09T04:40:50;101217.38;;;3.84;100.00
61757;BME280;57225;61.460;24.060;2022-09-09T04:43:35;101221.06;;;3.96;100.00
61757;BME280;57225;61.460;24.060;2022-09-09T04:46:21;101217.44;;;4.04;100.00
61757;BME280;57225;61.460;24.060;2022-09-09T04:49:06;101209.41;;;4.20;100.00
61757;BME280;57225;61.460;24.060;2022-09-09T04:51:51;101216.94;;;4.32;100.00
61757;BME280;57225;61.460;24.060;2022-09-09T04:54:40;101186.63;;;4.53;100.00
61757;BME280;57225;61.460;24.060;2022-09-09T04:57:24;101195.72;;;4.53;100.00
61757;BME280;57225;61.460;24.060;2022-09-09T05:00:09;101209.53;;;4.74;100.00
61757;BME280;57225;61.460;24.060;2022-09-09T05:02:54;101208.09;;;4.89;100.00
61757;BME280;57225;61.460;24.060;2022-09-09T05:05:38;101202.44;;;5.06;100.00
61757;BME280;57225;61.460;24.060;2022-09-09T05:08:23;101200.94;;;5.08;100.00
61757;BME280;57225;61.460;24.060;2022-09-09T05:11:19;101203.88;;;5.24;100.00
61757;BME280;57225;61.460;24.060;2022-09-09T05:14:04;101198.72;;;5.35;100.00
61757;BME280;57225;61.460;24.060;2022-09-09T05:16:48;101197.47;;;5.44;100.00
61757;BME280;57225;61.460;24.060;2022-09-09T05:19:33;101192.31;;;5.55;100.00
61757;BME280;57225;61.460;24.060;2022-09-09T05:22:19;101211.13;;;5.74;100.00
61757;BME280;57225;61.460;24.060;2022-09-09T05:25:04;101204.59;;;5.90;100.00
61757;BME280;57225;61.460;24.060;2022-09-09T05:27:49;101207.94;;;5.96;100.00
61757;BME280;57225;61.460;24.060;2022-09-09T05:30:33;101210.59;;;6.04;100.00
61757;BME280;57225;61.460;24.060;2022-09-09T05:33:18;101208.50;;;6.01;100.00
61757;BME280;57225;61.460;24.060;2022-09-09T05:36:11;101215.22;;;6.13;100.00
61757;BME280;57225;61.460;24.060;2022-09-09T05:38:59;101218.66;;;6.10;100.00
61757;BME280;57225;61.460;24.060;2022-09-09T05:41:44;101203.91;;;6.05;100.00
61757;BME280;57225;61.460;24.060;2022-09-09T05:44:28;101199.97;;;5.94;100.00
61757;BME280;57225;61.460;24.060;2022-09-09T05:47:12;101212.00;;;5.98;100.00
61757;BME280;57225;61.460;24.060;2022-09-09T05:49:57;101209.19;;;5.86;100.00
61757;BME280;57225;61.460;24.060;2022-09-09T05:52:41;101197.44;;;5.89;100.00
61757;BME280;57225;61.460;24.060;2022-09-09T05:55:27;101181.03;;;5.72;100.00
61757;BME280;57225;61.460;24.060;2022-09-09T05:58:11;101193.81;;;5.77;100.00
61757;BME280;57225;61.460;24.060;2022-09-09T06:01:04;101205.06;;;6.17;100.00
61757;BME280;57225;61.460;24.060;2022-09-09T06:03:49;101202.16;;;6.37;100.00
61757;BME280;57225;61.460;24.060;2022-09-09T06:06:36;101199.19;;;6.82;100.00
61757;BME280;57225;61.460;24.060;2022-09-09T06:09:20;101201.47;;;7.20;98.84
61757;BME280;57225;61.460;24.060;2022-09-09T06:12:05;101196.78;;;7.52;96.58
61757;BME280;57225;61.460;24.060;2022-09-09T06:14:49;101196.63;;;7.77;95.05
61757;BME280;57225;61.460;24.060;2022-09-09T06:17:36;101201.97;;;8.01;93.67
61757;BME280;57225;61.460;24.060;2022-09-09T06:20:21;101203.22;;;8.19;91.92
61757;BME280;57225;61.460;24.060;2022-09-09T06:23:06;101207.69;;;8.39;89.54
61757;BME280;57225;61.460;24.060;2022-09-09T06:25:50;101201.00;;;8.60;86.96
61757;BME280;57225;61.460;24.060;2022-09-09T06:28:35;101204.53;;;8.76;86.10
61757;BME280;57225;61.460;24.060;2022-09-09T06:31:21;101209.31;;;8.95;84.19
61757;BME280;57225;61.460;24.060;2022-09-09T06:34:07;101203.69;;;9.10;83.27
61757;BME280;57225;61.460;24.060;2022-09-09T06:36:51;101208.97;;;9.38;82.13
61757;BME280;57225;61.460;24.060;2022-09-09T06:39:36;101213.34;;;9.58;81.93
61757;BME280;57225;61.460;24.060;2022-09-09T06:42:20;101204.94;;;9.78;80.71
61757;BME280;57225;61.460;24.060;2022-09-09T06:45:05;101215.00;;;10.08;80.16
61757;BME280;57225;61.460;24.060;2022-09-09T06:47:51;101206.47;;;10.21;78.10
61757;BME280;57225;61.460;24.060;2022-09-09T06:50:38;101206.28;;;10.59;79.27
61757;BME280;57225;61.460;24.060;2022-09-09T06:53:23;101211.38;;;10.83;77.23
61757;BME280;57225;61.460;24.060;2022-09-09T06:58:57;101222.69;;;11.27;76.19
61757;BME280;57225;61.460;24.060;2022-09-09T07:01:48;101218.38;;;11.34;75.99
61757;BME280;57225;61.460;24.060;2022-09-09T07:04:33;101218.28;;;11.63;75.93
61757;BME280;57225;61.460;24.060;2022-09-09T07:07:17;101226.28;;;12.02;74.03
61757;BME280;57225;61.460;24.060;2022-09-09T07:10:02;101214.53;;;12.26;71.78
61757;BME280;57225;61.460;24.060;2022-09-09T07:12:52;101225.03;;;12.43;69.50
61757;BME280;57225;61.460;24.060;2022-09-09T07:15:37;101228.69;;;12.55;70.39
61757;BME280;57225;61.460;24.060;2022-09-09T07:18:21;101228.13;;;12.89;69.47
61757;BME280;57225;61.460;24.060;2022-09-09T07:21:05;101235.09;;;13.24;66.65
61757;BME280;57225;61.460;24.060;2022-09-09T07:23:50;101227.13;;;13.33;64.16
61757;BME280;57225;61.460;24.060;2022-09-09T07:26:35;101223.53;;;13.47;63.36
61757;BME280;57225;61.460;24.060;2022-09-09T07:29:20;101237.19;;;13.66;61.73
61757;BME280;57225;61.460;24.060;2022-09-09T07:32:05;101237.25;;;13.84;61.42
61757;BME280;57225;61.460;24.060;2022-09-09T07:34:49;101230.06;;;14.00;60.35
61757;BME280;57225;61.460;24.060;2022-09-09T07:37:37;101232.06;;;14.10;60.00
61757;BME280;57225;61.460;24.060;2022-09-09T07:40:21;101235.66;;;14.18;60.09
61757;BME280;57225;61.460;24.060;2022-09-09T07:43:05;101233.28;;;14.38;59.02
61757;BME280;57225;61.460;24.060;2022-09-09T07:45:57;101220.06;;;14.38;60.46
61757;BME280;57225;61.460;24.060;2022-09-09T07:48:46;101238.47;;;14.57;58.56
61757;BME280;57225;61.460;24.060;2022-09-09T07:51:37;101237.63;;;14.74;58.37
61757;BME280;57225;61.460;24.060;2022-09-09T07:54:22;101239.28;;;14.65;57.21
61757;BME280;57225;61.460;24.060;2022-09-09T07:57:07;101229.97;;;14.93;57.86
61757;BME280;57225;61.460;24.060;2022-09-09T07:59:51;101237.50;;;15.20;57.46
61757;BME280;57225;61.460;24.060;2022-09-09T08:02:36;101237.53;;;15.17;56.66
61757;BME280;57225;61.460;24.060;2022-09-09T08:05:20;101240.59;;;15.47;57.00
61757;BME280;57225;61.460;24.060;2022-09-09T08:08:06;101240.88;;;15.71;56.65
61757;BME280;57225;61.460;24.060;2022-09-09T08:10:52;101231.69;;;15.66;56.22
61757;BME280;57225;61.460;24.060;2022-09-09T08:13:37;101237.91;;;15.95;56.46
61757;BME280;57225;61.460;24.060;2022-09-09T08:16:27;101242.59;;;16.16;55.77
61757;BME280;57225;61.460;24.060;2022-09-09T08:19:11;101249.63;;;16.38;55.27
61757;BME280;57225;61.460;24.060;2022-09-09T08:21:56;101238.63;;;16.06;56.36
61757;BME280;57225;61.460;24.060;2022-09-09T08:24:40;101235.06;;;16.47;55.63
61757;BME280;57225;61.460;24.060;2022-09-09T08:27:25;101242.25;;;16.55;54.13
61757;BME280;57225;61.460;24.060;2022-09-09T08:30:09;101251.63;;;16.82;53.72
61757;BME280;57225;61.460;24.060;2022-09-09T08:32:54;101240.19;;;17.00;54.12
61757;BME280;57225;61.460;24.060;2022-09-09T08:35:39;101245.09;;;17.26;53.41
61757;BME280;57225;61.460;24.060;2022-09-09T08:38:23;101237.56;;;17.16;50.70
61757;BME280;57225;61.460;24.060;2022-09-09T08:53:24;101244.28;;;15.30;48.16
61757;BME280;57225;61.460;24.060;2022-09-09T08:56:17;101252.06;;;14.76;50.74
61757;BME280;57225;61.460;24.060;2022-09-09T08:59:03;101250.47;;;14.82;51.40
61757;BME280;57225;61.460;24.060;2022-09-09T09:08:10;101243.09;;;15.27;51.50
61757;BME280;57225;61.460;24.060;2022-09-09T09:10:57;101250.13;;;14.41;53.10
61757;BME280;57225;61.460;24.060;2022-09-09T09:13:56;101247.31;;;14.41;51.89
61757;BME280;57225;61.460;24.060;2022-09-09T09:16:51;101242.50;;;14.35;52.64
61757;BME280;57225;61.460;24.060;2022-09-09T09:19:39;101244.78;;;15.11;50.92
61757;BME280;57225;61.460;24.060;2022-09-09T09:25:33;101242.28;;;16.03;47.68
61757;BME280;57225;61.460;24.060;2022-09-09T09:28:24;101235.94;;;15.89;47.18
61757;BME280;57225;61.460;24.060;2022-09-09T09:31:10;101237.31;;;15.66;47.19
61757;BME280;57225;61.460;24.060;2022-09-09T09:33:56;101239.91;;;15.18;48.36
61757;BME280;57225;61.460;24.060;2022-09-09T09:36:52;101239.53;;;15.13;48.36
61757;BME280;57225;61.460;24.060;2022-09-09T09:39:37;101241.13;;;15.17;49.33
61757;BME280;57225;61.460;24.060;2022-09-09T09:42:23;101240.22;;;15.38;48.27
61757;BME280;57225;61.460;24.060;2022-09-09T09:48:15;101245.38;;;15.50;47.35
61757;BME280;57225;61.460;24.060;2022-09-09T09:51:06;101243.78;;;15.56;47.68
61757;BME280;57225;61.460;24.060;2022-09-09T09:53:53;101246.84;;;15.83;45.70
61757;BME280;57225;61.460;24.060;2022-09-09T09:56:37;101237.09;;;15.95;45.98
61757;BME280;57225;61.460;24.060;2022-09-09T10:08:12;101248.44;;;14.90;51.07
61757;BME280;57225;61.460;24.060;2022-09-09T10:23:14;101232.09;;;14.53;50.17
61757;BME280;57225;61.460;24.060;2022-09-09T10:35:36;101239.69;;;14.63;50.81
61757;BME280;57225;61.460;24.060;2022-09-09T10:38:42;101237.66;;;14.71;50.40
61757;BME280;57225;61.460;24.060;2022-09-09T10:42:09;101236.78;;;14.99;49.50
61757;BME280;57225;61.460;24.060;2022-09-09T10:45:13;101240.66;;;15.33;49.37
61757;BME280;57225;61.460;24.060;2022-09-09T10:48:12;101240.59;;;15.47;47.22
61757;BME280;57225;61.460;24.060;2022-09-09T10:51:08;101241.41;;;15.55;47.66
61757;BME280;57225;61.460;24.060;2022-09-09T10:57:39;101239.03;;;15.43;49.20
61757;BME280;57225;61.460;24.060;2022-09-09T11:00:35;101243.06;;;15.31;49.43
61757;BME280;57225;61.460;24.060;2022-09-09T11:03:27;101239.84;;;15.33;49.63
61757;BME280;57225;61.460;24.060;2022-09-09T11:06:17;101232.53;;;15.56;49.31
61757;BME280;57225;61.460;24.060;2022-09-09T11:09:03;101242.34;;;15.13;47.91
61757;BME280;57225;61.460;24.060;2022-09-09T11:11:57;101234.56;;;15.45;48.94
61757;BME280;57225;61.460;24.060;2022-09-09T11:14:59;101243.28;;;15.68;47.52
61757;BME280;57225;61.460;24.060;2022-09-09T11:17:49;101226.84;;;15.71;48.32
61757;BME280;57225;61.460;24.060;2022-09-09T11:20:35;101232.41;;;15.78;47.89
61757;BME280;57225;61.460;24.060;2022-09-09T11:23:26;101233.22;;;15.78;48.45
61757;BME280;57225;61.460;24.060;2022-09-09T11:26:17;101228.34;;;15.86;48.30
61757;BME280;57225;61.460;24.060;2022-09-09T11:29:22;101229.16;;;15.86;49.20
61757;BME280;57225;61.460;24.060;2022-09-09T11:32:31;101227.56;;;15.82;49.00
61757;BME280;57225;61.460;24.060;2022-09-09T11:38:25;101224.50;;;15.51;47.87
61757;BME280;57225;61.460;24.060;2022-09-09T11:41:10;101216.91;;;15.48;48.09
61757;BME280;57225;61.460;24.060;2022-09-09T11:43:54;101218.09;;;15.54;48.87
61757;BME280;57225;61.460;24.060;2022-09-09T11:46:40;101208.03;;;15.57;48.22
61757;BME280;57225;61.460;24.060;2022-09-09T11:52:39;101206.22;;;15.22;47.12
61757;BME280;57225;61.460;24.060;2022-09-09T11:55:27;101210.63;;;15.23;49.34
61757;BME280;57225;61.460;24.060;2022-09-09T12:00:57;101213.00;;;15.28;49.62
61757;BME280;57225;61.460;24.060;2022-09-09T12:03:48;101205.31;;;15.43;49.27
61757;BME280;57225;61.460;24.060;2022-09-09T12:06:50;101202.31;;;15.75;48.62
61757;BME280;57225;61.460;24.060;2022-09-09T12:12:32;101192.69;;;16.20;46.53
61757;BME280;57225;61.460;24.060;2022-09-09T12:15:21;101186.75;;;16.56;43.93
61757;BME280;57225;61.460;24.060;2022-09-09T12:18:15;101184.69;;;16.97;42.35
61757;BME280;57225;61.460;24.060;2022-09-09T12:21:25;101193.53;;;17.29;43.61
61757;BME280;57225;61.460;24.060;2022-09-09T12:24:25;101183.03;;;16.25;45.74
61757;BME280;57225;61.460;24.060;2022-09-09T12:27:27;101183.66;;;16.43;46.07
61757;BME280;57225;61.460;24.060;2022-09-09T12:30:17;101186.50;;;16.39;46.42
61757;BME280;57225;61.460;24.060;2022-09-09T12:33:10;101174.56;;;15.80;45.62
61757;BME280;57225;61.460;24.060;2022-09-09T12:35:56;101180.16;;;15.84;45.80
61757;BME280;57225;61.460;24.060;2022-09-09T12:38:43;101180.22;;;15.77;46.06
61757;BME280;57225;61.460;24.060;2022-09-09T12:41:28;101172.53;;;15.81;46.19
61757;BME280;57225;61.460;24.060;2022-09-09T12:44:15;101165.69;;;15.85;45.16
61757;BME280;57225;61.460;24.060;2022-09-09T12:47:02;101164.88;;;15.85;43.91
61757;BME280;57225;61.460;24.060;2022-09-09T12:49:47;101169.81;;;15.74;46.03
61757;BME280;57225;61.460;24.060;2022-09-09T12:52:35;101161.78;;;15.68;44.47
61757;BME280;57225;61.460;24.060;2022-09-09T12:55:24;101159.41;;;15.63;46.50
61757;BME280;57225;61.460;24.060;2022-09-09T12:58:13;101161.78;;;15.68;46.27
61757;BME280;57225;61.460;24.060;2022-09-09T13:01:03;101150.53;;;15.68;46.03
61757;BME280;57225;61.460;24.060;2022-09-09T13:03:52;101152.09;;;15.77;46.46
61757;BME280;57225;61.460;24.060;2022-09-09T13:06:36;101146.16;;;15.67;44.01
61757;BME280;57225;61.460;24.060;2022-09-09T13:09:21;101133.00;;;15.54;45.58
61757;BME280;57225;61.460;24.060;2022-09-09T13:12:11;101149.50;;;15.41;46.12
61757;BME280;57225;61.460;24.060;2022-09-09T13:14:57;101148.72;;;15.41;46.49
61757;BME280;57225;61.460;24.060;2022-09-09T13:17:41;101137.91;;;15.36;47.60
61757;BME280;57225;61.460;24.060;2022-09-09T13:20:26;101139.56;;;15.26;46.41
61757;BME280;57225;61.460;24.060;2022-09-09T13:23:11;101129.06;;;15.37;46.68
61757;BME280;57225;61.460;24.060;2022-09-09T13:25:58;101129.00;;;15.44;46.74
61757;BME280;57225;61.460;24.060;2022-09-09T13:28:43;101127.81;;;15.45;44.40
61757;BME280;57225;61.460;24.060;2022-09-09T13:31:33;101121.94;;;15.22;46.47
61757;BME280;57225;61.460;24.060;2022-09-09T13:34:31;101129.44;;;15.39;46.85
61757;BME280;57225;61.460;24.060;2022-09-09T13:40:20;101118.66;;;15.30;47.13
61757;BME280;57225;61.460;24.060;2022-09-09T13:43:20;101111.31;;;15.54;47.03
61757;BME280;57225;61.460;24.060;2022-09-09T13:52:09;101106.53;;;15.44;46.23
61757;BME280;57225;61.460;24.060;2022-09-09T13:54:53;101105.97;;;15.08;47.77
61757;BME280;57225;61.460;24.060;2022-09-09T13:57:38;101102.38;;;15.08;47.82
61757;BME280;57225;61.460;24.060;2022-09-09T14:00:23;101102.00;;;14.99;46.72
61757;BME280;57225;61.460;24.060;2022-09-09T14:03:10;101098.41;;;14.95;44.57
61757;BME280;57225;61.460;24.060;2022-09-09T14:05:55;101098.84;;;14.89;48.25
61757;BME280;57225;61.460;24.060;2022-09-09T14:08:39;101100.91;;;14.78;50.02
61757;BME280;57225;61.460;24.060;2022-09-09T14:11:24;101100.53;;;14.76;50.53
61757;BME280;57225;61.460;24.060;2022-09-09T14:14:08;101101.34;;;14.70;50.77
61757;BME280;57225;61.460;24.060;2022-09-09T14:16:54;101087.78;;;14.58;51.01
61757;BME280;57225;61.460;24.060;2022-09-09T14:19:38;101095.00;;;14.48;50.48
61757;BME280;57225;61.460;24.060;2022-09-09T14:22:23;101098.25;;;14.46;49.57
61757;BME280;57225;61.460;24.060;2022-09-09T14:25:12;101085.81;;;14.44;49.53
61757;BME280;57225;61.460;24.060;2022-09-09T14:27:59;101079.78;;;14.42;49.69
61757;BME280;57225;61.460;24.060;2022-09-09T14:30:44;101086.63;;;14.37;50.70
61757;BME280;57225;61.460;24.060;2022-09-09T14:33:28;101073.00;;;14.32;50.71
61757;BME280;57225;61.460;24.060;2022-09-09T14:36:13;101083.84;;;14.41;52.52
61757;BME280;57225;61.460;24.060;2022-09-09T14:38:59;101074.59;;;14.44;49.11
61757;BME280;57225;61.460;24.060;2022-09-09T14:41:43;101071.75;;;14.55;50.28
61757;BME280;57225;61.460;24.060;2022-09-09T14:44:28;101076.13;;;14.66;50.45
61757;BME280;57225;61.460;24.060;2022-09-09T14:47:12;101082.09;;;14.68;50.19
61757;BME280;57225;61.460;24.060;2022-09-09T14:49:57;101072.19;;;14.46;47.63
61757;BME280;57225;61.460;24.060;2022-09-09T14:52:41;101066.13;;;14.55;49.55
61757;BME280;57225;61.460;24.060;2022-09-09T14:55:28;101067.75;;;14.52;49.77
61757;BME280;57225;61.460;24.060;2022-09-09T14:58:13;101061.72;;;14.57;49.64
61757;BME280;57225;61.460;24.060;2022-09-09T15:01:27;101071.31;;;14.63;48.14
61757;BME280;57225;61.460;24.060;2022-09-09T15:04:13;101071.75;;;14.58;47.64
61757;BME280;57225;61.460;24.060;2022-09-09T15:07:01;101063.78;;;14.46;47.42
61757;BME280;57225;61.460;24.060;2022-09-09T15:09:45;101057.38;;;14.35;48.58
61757;BME280;57225;61.460;24.060;2022-09-09T15:12:32;101058.19;;;14.25;50.63
61757;BME280;57225;61.460;24.060;2022-09-09T15:15:17;101053.03;;;14.16;50.98
61757;BME280;57225;61.460;24.060;2022-09-09T15:18:02;101056.66;;;14.06;51.78
61757;BME280;57225;61.460;24.060;2022-09-09T15:20:46;101055.09;;;13.84;50.71
61757;BME280;57225;61.460;24.060;2022-09-09T15:23:32;101055.91;;;13.74;50.71
61757;BME280;57225;61.460;24.060;2022-09-09T15:26:18;101057.50;;;13.53;53.07
61757;BME280;57225;61.460;24.060;2022-09-09T15:29:03;101050.72;;;13.37;53.22
61757;BME280;57225;61.460;24.060;2022-09-09T15:31:47;101040.69;;;13.28;52.66
61757;BME280;57225;61.460;24.060;2022-09-09T15:34:32;101044.72;;;13.27;51.65
61757;BME280;57225;61.460;24.060;2022-09-09T15:37:16;101039.88;;;13.17;52.72
61757;BME280;57225;61.460;24.060;2022-09-09T15:40:01;101038.66;;;13.11;52.70
61757;BME280;57225;61.460;24.060;2022-09-09T15:42:45;101034.25;;;12.96;53.48
61757;BME280;57225;61.460;24.060;2022-09-09T15:45:29;101035.81;;;12.90;55.03
61757;BME280;57225;61.460;24.060;2022-09-09T15:48:15;101043.00;;;12.77;56.20
61757;BME280;57225;61.460;24.060;2022-09-09T15:51:03;101045.34;;;12.68;56.35
61757;BME280;57225;61.460;24.060;2022-09-09T15:53:47;101041.34;;;12.62;57.38
61757;BME280;57225;61.460;24.060;2022-09-09T15:56:32;101027.72;;;12.53;57.44
61757;BME280;57225;61.460;24.060;2022-09-09T15:59:17;101037.28;;;12.48;58.38
61757;BME280;57225;61.460;24.060;2022-09-09T16:02:02;101032.47;;;12.38;59.51
61757;BME280;57225;61.460;24.060;2022-09-09T16:04:47;101026.41;;;12.22;60.18
61757;BME280;57225;61.460;24.060;2022-09-09T16:07:31;101032.78;;;12.19;61.29
61757;BME280;57225;61.460;24.060;2022-09-09T16:10:16;101031.47;;;12.02;62.19
61757;BME280;57225;61.460;24.060;2022-09-09T16:13:00;101028.63;;;11.92;62.69